Temp: 2.3°C   Baro: 1026.9mb
  Wind: 2.0mph   Dir: ESE (123°)
  Rain: 0.0mm (0.0mm/hr)
  Solar: 86W/m2  Hum: 97%

Historic data

Bath Spa Weather Station Historical Data
Daily Summary for September 28, 2022 Units:  Both    English   Metric
Daily Weekly Monthly Yearly Custom
  High: Low: Average:
Temperature: 60.4 °F /  15.8 °C 42.3 °F /  5.7 °C 50.2 °F /  10.1 °C
Dew Point: 48.8 °F /  9.3 °C 39.6 °F /  4.2 °C 44.5 °F /  6.9 °C
Humidity: 91% 61.2% 81%
Wind Speed: 7.4mph /  11.9km/h - 2mph /  3.2km/h
Wind Gust: 13mph /  20.9km/h - -
Wind- - WNW
Pressure: 29.60 in /  1002.3 hPa 29.57 in /  1001.2 hPa -
Precipitation: 0.00 in /  0 mm    
Historical Graphs
 
 
Tabular Data for September 28, 2022
Time Temperature Dew Point Pressure Wind Wind Speed Wind Gust Humidity Rainfall Rate (Hourly) solar
00:09 47.1 °F /  8.4 °C 42.6 °F /  5.9 °C 29.60in /  1002.3hPa Calm     84% 0.00in /  0mm 0 W/m2
00:14 47.1 °F /  8.4 °C 42.6 °F /  5.9 °C 29.60in /  1002.3hPa Calm     84% 0.00in /  0mm 0 W/m2
00:19 46.9 °F /  8.3 °C 42.4 °F /  5.8 °C 29.59in /  1001.9hPa Calm     84% 0.00in /  0mm 0 W/m2
00:24 46.9 °F /  8.3 °C 42.4 °F /  5.8 °C 29.59in /  1001.9hPa Calm     84% 0.00in /  0mm 0 W/m2
00:29 46.8 °F /  8.2 °C 42.3 °F /  5.7 °C 29.59in /  1001.9hPa Calm     84% 0.00in /  0mm 0 W/m2
00:34 46.6 °F /  8.1 °C 42.1 °F /  5.6 °C 29.59in /  1001.9hPa Calm     84.2% 0.00in /  0mm 0 W/m2
00:39 46.6 °F /  8.1 °C 42.3 °F /  5.7 °C 29.59in /  1001.9hPa Calm     85% 0.00in /  0mm 0 W/m2
00:44 46.4 °F /  8 °C 42.1 °F /  5.6 °C 29.59in /  1001.9hPa Calm     85% 0.00in /  0mm 0 W/m2
00:49 46.2 °F /  7.9 °C 41.9 °F /  5.5 °C 29.59in /  1001.9hPa Calm     85% 0.00in /  0mm 0 W/m2
00:54 46.2 °F /  7.9 °C 41.9 °F /  5.5 °C 29.59in /  1001.9hPa NW 0.7mph /  1.1km/h 1mph /  1.6km/h 85% 0.00in /  0mm 0 W/m2
00:59 46 °F /  7.8 °C 41.7 °F /  5.4 °C 29.59in /  1001.9hPa NW 1.8mph /  2.9km/h 3mph /  4.8km/h 85.2% 0.00in /  0mm 0 W/m2
01:04 45.9 °F /  7.7 °C 41.9 °F /  5.5 °C 29.59in /  1001.9hPa NW 1.8mph /  2.9km/h 3mph /  4.8km/h 86% 0.00in /  0mm 0 W/m2
01:09 45.7 °F /  7.6 °C 41.7 °F /  5.4 °C 29.59in /  1001.9hPa NW 1.1mph /  1.8km/h 2mph /  3.2km/h 86% 0.00in /  0mm 0 W/m2
01:14 45.7 °F /  7.6 °C 41.7 °F /  5.4 °C 29.59in /  1001.9hPa NW 2.2mph /  3.5km/h 4mph /  6.4km/h 86% 0.00in /  0mm 0 W/m2
01:19 45.7 °F /  7.6 °C 41.7 °F /  5.4 °C 29.59in /  1001.9hPa NW 1.8mph /  2.9km/h 3mph /  4.8km/h 86% 0.00in /  0mm 0 W/m2
01:24 45.7 °F /  7.6 °C 41.8 °F /  5.4 °C 29.59in /  1001.9hPa NW 1.3mph /  2.1km/h 3mph /  4.8km/h 86.4% 0.00in /  0mm 0 W/m2
01:29 45.5 °F /  7.5 °C 41.6 °F /  5.3 °C 29.59in /  1001.9hPa NW 1.3mph /  2.1km/h 2mph /  3.2km/h 86.4% 0.00in /  0mm 0 W/m2
01:34 45.3 °F /  7.4 °C 41.7 °F /  5.4 °C 29.59in /  1001.9hPa NW 2.5mph /  4km/h 4mph /  6.4km/h 87% 0.00in /  0mm 0 W/m2
01:39 45.3 °F /  7.4 °C 41.7 °F /  5.4 °C 29.59in /  1001.9hPa NW 2.1mph /  3.4km/h 4mph /  6.4km/h 87% 0.00in /  0mm 0 W/m2
01:44 45.4 °F /  7.4 °C 41.8 °F /  5.4 °C 29.59in /  1001.9hPa NW 0.9mph /  1.4km/h 4mph /  6.4km/h 87% 0.00in /  0mm 0 W/m2
01:49 45.1 °F /  7.3 °C 41.5 °F /  5.3 °C 29.59in /  1001.9hPa NW 1.7mph /  2.7km/h 3mph /  4.8km/h 87% 0.00in /  0mm 0 W/m2
01:54 44.9 °F /  7.2 °C 41.3 °F /  5.2 °C 29.59in /  1001.9hPa NW 2mph /  3.2km/h 4mph /  6.4km/h 87% 0.00in /  0mm 0 W/m2
01:59 44.6 °F /  7 °C 41 °F /  5 °C 29.59in /  1001.9hPa NW 0.9mph /  1.4km/h 3mph /  4.8km/h 87% 0.00in /  0mm 0 W/m2
02:04 44.2 °F /  6.8 °C 40.6 °F /  4.8 °C 29.59in /  1001.9hPa NW 1.7mph /  2.7km/h 3mph /  4.8km/h 87% 0.00in /  0mm 0 W/m2
02:09 44.1 °F /  6.7 °C 40.7 °F /  4.8 °C 29.59in /  1001.9hPa NW 1.8mph /  2.9km/h 3mph /  4.8km/h 87.8% 0.00in /  0mm 0 W/m2
02:14 43.9 °F /  6.6 °C 40.6 °F /  4.8 °C 29.59in /  1001.9hPa NW 1.4mph /  2.3km/h 3mph /  4.8km/h 88% 0.00in /  0mm 0 W/m2
02:19 43.7 °F /  6.5 °C 40.5 °F /  4.7 °C 29.59in /  1001.9hPa NW 0.6mph /  1km/h 2mph /  3.2km/h 88% 0.00in /  0mm 0 W/m2
02:24 43.7 °F /  6.5 °C 40.5 °F /  4.7 °C 29.59in /  1001.9hPa NW 0.4mph /  0.6km/h 2mph /  3.2km/h 88% 0.00in /  0mm 0 W/m2
02:29 43.4 °F /  6.3 °C 40.2 °F /  4.6 °C 29.59in /  1001.9hPa NW 0.2mph /  0.3km/h 1mph /  1.6km/h 88% 0.00in /  0mm 0 W/m2
02:34 43.3 °F /  6.3 °C 40.1 °F /  4.5 °C 29.59in /  1001.9hPa Calm   1mph /  1.6km/h 88% 0.00in /  0mm 0 W/m2
02:39 43.3 °F /  6.3 °C 40.2 °F /  4.6 °C 29.59in /  1001.9hPa Calm   1mph /  1.6km/h 88.4% 0.00in /  0mm 0 W/m2
02:44 43.3 °F /  6.3 °C 40.2 °F /  4.6 °C 29.59in /  1001.9hPa Calm     88.6% 0.00in /  0mm 0 W/m2
02:49 43.3 °F /  6.3 °C 40.3 °F /  4.6 °C 29.59in /  1001.9hPa NW 1.6mph /  2.6km/h 2mph /  3.2km/h 88.8% 0.00in /  0mm 0 W/m2
02:54 43.3 °F /  6.3 °C 40.3 °F /  4.6 °C 29.59in /  1001.9hPa NW 0.9mph /  1.4km/h 2mph /  3.2km/h 89% 0.00in /  0mm 0 W/m2
02:59 43.3 °F /  6.3 °C 40.3 °F /  4.6 °C 29.59in /  1001.9hPa NW 0.4mph /  0.6km/h 2mph /  3.2km/h 89% 0.00in /  0mm 0 W/m2
03:04 43.3 °F /  6.3 °C 40.3 °F /  4.6 °C 29.58in /  1001.6hPa NW 0.5mph /  0.8km/h 2mph /  3.2km/h 89% 0.00in /  0mm 0 W/m2
03:09 43.3 °F /  6.3 °C 40.3 °F /  4.6 °C 29.58in /  1001.6hPa Calm   1mph /  1.6km/h 89% 0.00in /  0mm 0 W/m2
03:14 43.2 °F /  6.2 °C 40.1 °F /  4.5 °C 29.58in /  1001.6hPa Calm     89% 0.00in /  0mm 0 W/m2
03:19 43.2 °F /  6.2 °C 40.1 °F /  4.5 °C 29.59in /  1001.9hPa NW 1mph /  1.6km/h 3mph /  4.8km/h 89% 0.00in /  0mm 0 W/m2
03:24 43.2 °F /  6.2 °C 40.1 °F /  4.5 °C 29.58in /  1001.6hPa Calm   2mph /  3.2km/h 89% 0.00in /  0mm 0 W/m2
03:29 43.2 °F /  6.2 °C 40.1 °F /  4.5 °C 29.58in /  1001.6hPa Calm     89% 0.00in /  0mm 0 W/m2
03:34 43.2 °F /  6.2 °C 40.1 °F /  4.5 °C 29.58in /  1001.6hPa Calm     89% 0.00in /  0mm 0 W/m2
03:39 43.1 °F /  6.2 °C 40 °F /  4.4 °C 29.58in /  1001.6hPa NW 0.8mph /  1.3km/h 2mph /  3.2km/h 89% 0.00in /  0mm 0 W/m2
03:44 43 °F /  6.1 °C 39.9 °F /  4.4 °C 29.58in /  1001.6hPa NW 0.7mph /  1.1km/h 2mph /  3.2km/h 89% 0.00in /  0mm 0 W/m2
03:49 43 °F /  6.1 °C 39.9 °F /  4.4 °C 29.58in /  1001.6hPa NW 0.4mph /  0.6km/h 2mph /  3.2km/h 89% 0.00in /  0mm 0 W/m2
03:54 42.8 °F /  6 °C 39.9 °F /  4.4 °C 29.58in /  1001.6hPa NW 0.8mph /  1.3km/h 2mph /  3.2km/h 89.6% 0.00in /  0mm 0 W/m2
03:59 42.6 °F /  5.9 °C 39.9 °F /  4.4 °C 29.58in /  1001.6hPa NW 1.8mph /  2.9km/h 3mph /  4.8km/h 90% 0.00in /  0mm 0 W/m2
04:04 42.5 °F /  5.8 °C 39.8 °F /  4.3 °C 29.58in /  1001.6hPa NW 1.6mph /  2.6km/h 3mph /  4.8km/h 90% 0.00in /  0mm 0 W/m2
04:09 42.6 °F /  5.9 °C 39.9 °F /  4.4 °C 29.58in /  1001.6hPa NW 2.7mph /  4.3km/h 4mph /  6.4km/h 90% 0.00in /  0mm 0 W/m2
04:14 42.8 °F /  6 °C 40.1 °F /  4.5 °C 29.58in /  1001.6hPa NW 2.7mph /  4.3km/h 4mph /  6.4km/h 90% 0.00in /  0mm 0 W/m2
04:19 43.1 °F /  6.2 °C 40.4 °F /  4.7 °C 29.58in /  1001.6hPa NW 2.6mph /  4.2km/h 4mph /  6.4km/h 90% 0.00in /  0mm 0 W/m2
04:24 43.4 °F /  6.3 °C 40.7 °F /  4.8 °C 29.59in /  1001.9hPa NW 2.1mph /  3.4km/h 4mph /  6.4km/h 90% 0.00in /  0mm 0 W/m2
04:28 43.5 °F /  6.4 °C 40.8 °F /  4.9 °C 29.58in /  1001.6hPa NW 0.5mph /  0.8km/h 3mph /  4.8km/h 90% 0.00in /  0mm 0 W/m2
04:34 43.6 °F /  6.4 °C 40.9 °F /  4.9 °C 29.59in /  1001.9hPa NW 0.8mph /  1.3km/h 4mph /  6.4km/h 90% 0.00in /  0mm 0 W/m2
04:39 43.5 °F /  6.4 °C 40.8 °F /  4.9 °C 29.59in /  1001.9hPa Calm     90% 0.00in /  0mm 0 W/m2
04:44 43.3 °F /  6.3 °C 40.6 °F /  4.8 °C 29.59in /  1001.9hPa Calm   1mph /  1.6km/h 90% 0.00in /  0mm 0 W/m2
04:49 43.2 °F /  6.2 °C 40.5 °F /  4.7 °C 29.59in /  1001.9hPa Calm   1mph /  1.6km/h 90% 0.00in /  0mm 0 W/m2
04:54 43.1 °F /  6.2 °C 40.4 °F /  4.7 °C 29.59in /  1001.9hPa Calm     90% 0.00in /  0mm 0 W/m2
04:59 43 °F /  6.1 °C 40.3 °F /  4.6 °C 29.59in /  1001.9hPa Calm   1mph /  1.6km/h 90% 0.00in /  0mm 0 W/m2
05:04 43 °F /  6.1 °C 40.3 °F /  4.6 °C 29.59in /  1001.9hPa Calm   1mph /  1.6km/h 90% 0.00in /  0mm 0 W/m2
05:09 43 °F /  6.1 °C 40.3 °F /  4.6 °C 29.59in /  1001.9hPa NW 1.2mph /  1.9km/h 2mph /  3.2km/h 90% 0.00in /  0mm 0 W/m2
05:14 43 °F /  6.1 °C 40.3 °F /  4.6 °C 29.59in /  1001.9hPa Calm   1mph /  1.6km/h 90% 0.00in /  0mm 0 W/m2
05:19 42.8 °F /  6 °C 40.1 °F /  4.5 °C 29.59in /  1001.9hPa Calm     90% 0.00in /  0mm 0 W/m2
05:24 42.7 °F /  5.9 °C 40 °F /  4.4 °C 29.59in /  1001.9hPa NW 0.7mph /  1.1km/h 2mph /  3.2km/h 90% 0.00in /  0mm 0 W/m2
05:29 42.6 °F /  5.9 °C 39.9 °F /  4.4 °C 29.59in /  1001.9hPa Calm   2mph /  3.2km/h 90% 0.00in /  0mm 0 W/m2
05:34 42.6 °F /  5.9 °C 39.9 °F /  4.4 °C 29.59in /  1001.9hPa Calm   1mph /  1.6km/h 90% 0.00in /  0mm 0 W/m2
05:39 42.6 °F /  5.9 °C 39.9 °F /  4.4 °C 29.59in /  1001.9hPa NW 0.5mph /  0.8km/h 2mph /  3.2km/h 90% 0.00in /  0mm 0 W/m2
05:44 42.8 °F /  6 °C 40.1 °F /  4.5 °C 29.59in /  1001.9hPa NW 0.4mph /  0.6km/h 2mph /  3.2km/h 90% 0.00in /  0mm 0 W/m2
05:49 42.8 °F /  6 °C 40.1 °F /  4.5 °C 29.59in /  1001.9hPa Calm     90% 0.00in /  0mm 0 W/m2
05:54 42.8 °F /  6 °C 40.1 °F /  4.5 °C 29.59in /  1001.9hPa Calm     90% 0.00in /  0mm 0 W/m2
05:59 42.6 °F /  5.9 °C 39.9 °F /  4.4 °C 29.59in /  1001.9hPa Calm     90% 0.00in /  0mm 0 W/m2
06:04 42.6 °F /  5.9 °C 39.9 °F /  4.4 °C 29.59in /  1001.9hPa Calm     90% 0.00in /  0mm 0 W/m2
06:09 42.6 °F /  5.9 °C 39.9 °F /  4.4 °C 29.59in /  1001.9hPa Calm     90% 0.00in /  0mm 0 W/m2
06:14 42.6 °F /  5.9 °C 39.9 °F /  4.4 °C 29.59in /  1001.9hPa Calm   1mph /  1.6km/h 90% 0.00in /  0mm 0 W/m2
06:19 42.6 °F /  5.9 °C 39.9 °F /  4.4 °C 29.59in /  1001.9hPa Calm     90% 0.00in /  0mm 0 W/m2
06:24 42.4 °F /  5.8 °C 39.7 °F /  4.3 °C 29.59in /  1001.9hPa Calm     90% 0.00in /  0mm 0 W/m2
06:29 42.3 °F /  5.7 °C 39.6 °F /  4.2 °C 29.59in /  1001.9hPa Calm     90% 0.00in /  0mm 0 W/m2
06:34 42.4 °F /  5.8 °C 39.8 °F /  4.3 °C 29.59in /  1001.9hPa NW 0.2mph /  0.3km/h 2mph /  3.2km/h 90.6% 0.00in /  0mm 0 W/m2
06:39 42.4 °F /  5.8 °C 39.9 °F /  4.4 °C 29.59in /  1001.9hPa Calm     91% 0.00in /  0mm 0 W/m2
06:44 42.3 °F /  5.7 °C 39.7 °F /  4.3 °C 29.59in /  1001.9hPa NW 0.2mph /  0.3km/h 1mph /  1.6km/h 91% 0.00in /  0mm 0 W/m2
06:49 42.3 °F /  5.7 °C 39.7 °F /  4.3 °C 29.59in /  1001.9hPa Calm     91% 0.00in /  0mm 0 W/m2
06:54 43.4 °F /  6.3 °C 40.8 °F /  4.9 °C 29.59in /  1001.9hPa Calm     91% 0.00in /  0mm 0 W/m2
06:59 44.9 °F /  7.2 °C 42.4 °F /  5.8 °C 29.59in /  1001.9hPa Calm     91% 0.00in /  0mm 0 W/m2
07:04 45.6 °F /  7.6 °C 43.1 °F /  6.2 °C 29.59in /  1001.9hPa Calm     91% 0.00in /  0mm 0 W/m2
07:09 45.8 °F /  7.7 °C 43.3 °F /  6.3 °C 29.59in /  1001.9hPa Calm     91% 0.00in /  0mm 5 W/m2
07:14 46.2 °F /  7.9 °C 43.7 °F /  6.5 °C 29.59in /  1001.9hPa Calm     91% 0.00in /  0mm 5 W/m2
07:19 46.1 °F /  7.8 °C 43.6 °F /  6.4 °C 29.59in /  1001.9hPa Calm     91% 0.00in /  0mm 7 W/m2
07:23 46.2 °F /  7.9 °C 43.7 °F /  6.5 °C 29.59in /  1001.9hPa Calm     91% 0.00in /  0mm 9 W/m2
07:29 46.4 °F /  8 °C 43.9 °F /  6.6 °C 29.59in /  1001.9hPa Calm     90.8% 0.00in /  0mm 11 W/m2
07:34 46.4 °F /  8 °C 43.7 °F /  6.5 °C 29.59in /  1001.9hPa Calm     90.2% 0.00in /  0mm 14 W/m2
07:39 46.6 °F /  8.1 °C 43.9 °F /  6.6 °C 29.59in /  1001.9hPa Calm     90% 0.00in /  0mm 16 W/m2
07:44 46.9 °F /  8.3 °C 44.2 °F /  6.8 °C 29.59in /  1001.9hPa Calm     90% 0.00in /  0mm 18 W/m2
07:49 47 °F /  8.3 °C 44.3 °F /  6.8 °C 29.59in /  1001.9hPa Calm     90% 0.00in /  0mm 18 W/m2
07:54 46.9 °F /  8.3 °C 44.2 °F /  6.8 °C 29.59in /  1001.9hPa Calm     90% 0.00in /  0mm 19 W/m2
07:59 46.7 °F /  8.2 °C 43.9 °F /  6.6 °C 29.59in /  1001.9hPa Calm     89.6% 0.00in /  0mm 19 W/m2
08:04 46.6 °F /  8.1 °C 43.5 °F /  6.4 °C 29.59in /  1001.9hPa Calm     89% 0.00in /  0mm 19 W/m2
08:09 46.8 °F /  8.2 °C 44 °F /  6.7 °C 29.59in /  1001.9hPa Calm     89.6% 0.00in /  0mm 23 W/m2
08:14 46.7 °F /  8.2 °C 43.7 °F /  6.5 °C 29.59in /  1001.9hPa Calm     89.2% 0.00in /  0mm 26 W/m2
08:19 47.5 °F /  8.6 °C 44.8 °F /  7.1 °C 29.59in /  1001.9hPa Calm     90% 0.00in /  0mm 30 W/m2
08:24 48.6 °F /  9.2 °C 45.7 °F /  7.6 °C 29.59in /  1001.9hPa Calm     90% 0.00in /  0mm 35 W/m2
08:29 49.2 °F /  9.6 °C 46.2 °F /  7.9 °C 29.59in /  1001.9hPa Calm     89.6% 0.00in /  0mm 35 W/m2
08:34 48.9 °F /  9.4 °C 45.9 °F /  7.7 °C 29.60in /  1002.3hPa Calm     89% 0.00in /  0mm 32 W/m2
08:39 49.4 °F /  9.7 °C 46.3 °F /  7.9 °C 29.60in /  1002.3hPa Calm     89% 0.00in /  0mm 42 W/m2
08:44 49.5 °F /  9.7 °C 46.2 °F /  7.9 °C 29.60in /  1002.3hPa Calm     88.4% 0.00in /  0mm 95 W/m2
08:49 50.2 °F /  10.1 °C 46.8 °F /  8.2 °C 29.60in /  1002.3hPa Calm     88% 0.00in /  0mm 120 W/m2
08:54 51.1 °F /  10.6 °C 47.6 °F /  8.7 °C 29.60in /  1002.3hPa Calm     87.8% 0.00in /  0mm 132 W/m2
08:59 50.9 °F /  10.5 °C 47 °F /  8.3 °C 29.60in /  1002.3hPa Calm     86.6% 0.00in /  0mm 104 W/m2
09:04 51.3 °F /  10.7 °C 47.3 °F /  8.5 °C 29.60in /  1002.3hPa Calm     86% 0.00in /  0mm 142 W/m2
09:09 52 °F /  11.1 °C 47.8 °F /  8.8 °C 29.60in /  1002.3hPa Calm     85.8% 0.00in /  0mm 113 W/m2
09:14 52 °F /  11.1 °C 47.7 °F /  8.7 °C 29.60in /  1002.3hPa Calm     85% 0.00in /  0mm 153 W/m2
09:19 52 °F /  11.1 °C 47.7 °F /  8.7 °C 29.60in /  1002.3hPa Calm     85% 0.00in /  0mm 241 W/m2
09:24 51.5 °F /  10.8 °C 46.6 °F /  8.1 °C 29.60in /  1002.3hPa Calm     83.4% 0.00in /  0mm 163 W/m2
09:29 51.3 °F /  10.7 °C 46.2 °F /  7.9 °C 29.60in /  1002.3hPa Calm     83% 0.00in /  0mm 178 W/m2
09:34 51.4 °F /  10.8 °C 46.3 °F /  7.9 °C 29.60in /  1002.3hPa Calm     83% 0.00in /  0mm 251 W/m2
09:39 51.4 °F /  10.8 °C 46.4 °F /  8 °C 29.60in /  1002.3hPa Calm     83% 0.00in /  0mm 214 W/m2
09:44 51.6 °F /  10.9 °C 46.5 °F /  8.1 °C 29.60in /  1002.3hPa Calm     82.8% 0.00in /  0mm 169 W/m2
09:49 51.6 °F /  10.9 °C 46.2 °F /  7.9 °C 29.60in /  1002.3hPa Calm     82% 0.00in /  0mm 285 W/m2
09:54 52.7 °F /  11.5 °C 47.6 °F /  8.7 °C 29.60in /  1002.3hPa Calm     82.8% 0.00in /  0mm 526 W/m2
09:59 53.9 °F /  12.2 °C 48.8 °F /  9.3 °C 29.60in /  1002.3hPa NW 2.4mph /  3.9km/h 5mph /  8km/h 82.8% 0.00in /  0mm 343 W/m2
10:04 53.5 °F /  11.9 °C 47.7 °F /  8.7 °C 29.60in /  1002.3hPa WNW 4mph /  6.4km/h 8mph /  12.9km/h 80.4% 0.00in /  0mm 413 W/m2
10:09 53.6 °F /  12 °C 47.5 °F /  8.6 °C 29.60in /  1002.3hPa NW 5.3mph /  8.5km/h 9mph /  14.5km/h 79.5% 0.00in /  0mm 410 W/m2
10:14 54 °F /  12.2 °C 47.5 °F /  8.6 °C 29.60in /  1002.3hPa WNW 4.9mph /  7.9km/h 8mph /  12.9km/h 78.6% 0.00in /  0mm 464 W/m2
10:19 54.1 °F /  12.3 °C 47.1 °F /  8.4 °C 29.60in /  1002.3hPa NW 5.2mph /  8.4km/h 11mph /  17.7km/h 77.2% 0.00in /  0mm 480 W/m2
10:24 54.2 °F /  12.3 °C 46.9 °F /  8.3 °C 29.60in /  1002.3hPa NW 4.8mph /  7.7km/h 9mph /  14.5km/h 76.2% 0.00in /  0mm 415 W/m2
10:29 54.4 °F /  12.4 °C 46.9 °F /  8.3 °C 29.60in /  1002.3hPa NW 4.9mph /  7.9km/h 10mph /  16.1km/h 75.8% 0.00in /  0mm 418 W/m2
10:34 54.5 °F /  12.5 °C 46.7 °F /  8.2 °C 29.60in /  1002.3hPa NNW 6.1mph /  9.8km/h 11mph /  17.7km/h 75% 0.00in /  0mm 445 W/m2
10:39 54.7 °F /  12.6 °C 46.6 °F /  8.1 °C 29.60in /  1002.3hPa NW 4.7mph /  7.6km/h 11mph /  17.7km/h 74% 0.00in /  0mm 461 W/m2
10:44 54.8 °F /  12.7 °C 46.7 °F /  8.2 °C 29.60in /  1002.3hPa WNW 4.6mph /  7.4km/h 11mph /  17.7km/h 74% 0.00in /  0mm 455 W/m2
10:49 55.2 °F /  12.9 °C 46.9 °F /  8.3 °C 29.60in /  1002.3hPa NNW 4mph /  6.4km/h 9mph /  14.5km/h 73.6% 0.00in /  0mm 482 W/m2
10:54 55.4 °F /  13 °C 47 °F /  8.3 °C 29.59in /  1001.9hPa NNW 5.4mph /  8.7km/h 9mph /  14.5km/h 73% 0.00in /  0mm 483 W/m2
10:58 55.2 °F /  12.9 °C 46.6 °F /  8.1 °C 29.59in /  1001.9hPa NW 6.8mph /  10.9km/h 11mph /  17.7km/h 72.8% 0.00in /  0mm 499 W/m2
11:04 54.7 °F /  12.6 °C 46 °F /  7.8 °C 29.59in /  1001.9hPa WNW 4.8mph /  7.7km/h 10mph /  16.1km/h 72.4% 0.00in /  0mm 413 W/m2
11:09 54.9 °F /  12.7 °C 46.4 °F /  8 °C 29.59in /  1001.9hPa WNW 3.1mph /  5km/h 9mph /  14.5km/h 73% 0.00in /  0mm 506 W/m2
11:14 55.3 °F /  12.9 °C 46.9 °F /  8.3 °C 29.59in /  1001.9hPa NNW 4.4mph /  7.1km/h 9mph /  14.5km/h 73% 0.00in /  0mm 589 W/m2
11:19 55.8 °F /  13.2 °C 47 °F /  8.3 °C 29.59in /  1001.9hPa NW 5.4mph /  8.7km/h 10mph /  16.1km/h 72% 0.00in /  0mm 589 W/m2
11:24 55.8 °F /  13.2 °C 46.7 °F /  8.2 °C 29.59in /  1001.9hPa West 5.6mph /  9km/h 10mph /  16.1km/h 71.2% 0.00in /  0mm 677 W/m2
11:29 56 °F /  13.3 °C 47 °F /  8.3 °C 29.59in /  1001.9hPa West 3.1mph /  5km/h 8mph /  12.9km/h 71.6% 0.00in /  0mm 652 W/m2
11:34 56 °F /  13.3 °C 47 °F /  8.3 °C 29.59in /  1001.9hPa WNW 3.6mph /  5.8km/h 7mph /  11.3km/h 71.4% 0.00in /  0mm 77 W/m2
11:39 55.5 °F /  13.1 °C 46.7 °F /  8.2 °C 29.59in /  1001.9hPa NW 6.2mph /  10km/h 12mph /  19.3km/h 72% 0.00in /  0mm 70 W/m2
11:44 55 °F /  12.8 °C 46.1 °F /  7.8 °C 29.59in /  1001.9hPa WNW 4.4mph /  7.1km/h 12mph /  19.3km/h 71.6% 0.00in /  0mm 584 W/m2
11:49 55.6 °F /  13.1 °C 46.4 °F /  8 °C 29.59in /  1001.9hPa WNW 4mph /  6.4km/h 11mph /  17.7km/h 71% 0.00in /  0mm 687 W/m2
11:54 56.3 °F /  13.5 °C 46.6 °F /  8.1 °C 29.59in /  1001.9hPa WNW 6.2mph /  10km/h 13mph /  20.9km/h 69.8% 0.00in /  0mm 742 W/m2
11:59 56.7 °F /  13.7 °C 46.6 °F /  8.1 °C 29.59in /  1001.9hPa NNW 4.5mph /  7.2km/h 9mph /  14.5km/h 68.8% 0.00in /  0mm 742 W/m2
12:04 56.5 °F /  13.6 °C 46.1 °F /  7.8 °C 29.59in /  1001.9hPa WNW 4.9mph /  7.9km/h 9mph /  14.5km/h 68.2% 0.00in /  0mm 213 W/m2
12:09 56.1 °F /  13.4 °C 45.7 °F /  7.6 °C 29.59in /  1001.9hPa WNW 4mph /  6.4km/h 10mph /  16.1km/h 68% 0.00in /  0mm 156 W/m2
12:14 56.1 °F /  13.4 °C 45.7 °F /  7.6 °C 29.59in /  1001.9hPa WNW 2.8mph /  4.5km/h 8mph /  12.9km/h 68% 0.00in /  0mm 385 W/m2
12:19 56.2 °F /  13.4 °C 45.9 °F /  7.7 °C 29.59in /  1001.9hPa NW 4.8mph /  7.7km/h 8mph /  12.9km/h 68.2% 0.00in /  0mm 779 W/m2
12:24 57 °F /  13.9 °C 46.5 °F /  8.1 °C 29.59in /  1001.9hPa WNW 4.5mph /  7.2km/h 10mph /  16.1km/h 67.8% 0.00in /  0mm 812 W/m2
12:29 57.6 °F /  14.2 °C 46.8 °F /  8.2 °C 29.59in /  1001.9hPa WNW 4.6mph /  7.4km/h 9mph /  14.5km/h 67% 0.00in /  0mm 775 W/m2
12:34 57.7 °F /  14.3 °C 46.5 °F /  8.1 °C 29.59in /  1001.9hPa NNW 7.2mph /  11.6km/h 11mph /  17.7km/h 66.4% 0.00in /  0mm 364 W/m2
12:39 57.2 °F /  14 °C 46 °F /  7.8 °C 29.59in /  1001.9hPa NW 4.4mph /  7.1km/h 10mph /  16.1km/h 66.2% 0.00in /  0mm 366 W/m2
12:44 57.3 °F /  14.1 °C 46.5 °F /  8.1 °C 29.59in /  1001.9hPa NNW 2.8mph /  4.5km/h 6mph /  9.7km/h 67% 0.00in /  0mm 422 W/m2
12:49 57.6 °F /  14.2 °C 46.4 °F /  8 °C 29.59in /  1001.9hPa NW 4.7mph /  7.6km/h 11mph /  17.7km/h 66.4% 0.00in /  0mm 230 W/m2
12:54 57.5 °F /  14.2 °C 46.5 °F /  8.1 °C 29.58in /  1001.6hPa NW 3.8mph /  6.1km/h 6mph /  9.7km/h 66.6% 0.00in /  0mm 269 W/m2
12:59 57.5 °F /  14.2 °C 46.3 °F /  7.9 °C 29.58in /  1001.6hPa North 4.7mph /  7.6km/h 11mph /  17.7km/h 66.4% 0.00in /  0mm 186 W/m2
13:04 57.2 °F /  14 °C 46 °F /  7.8 °C 29.58in /  1001.6hPa NW 3.2mph /  5.1km/h 7mph /  11.3km/h 66.2% 0.00in /  0mm 218 W/m2
13:09 57 °F /  13.9 °C 46 °F /  7.8 °C 29.58in /  1001.6hPa NW 3.4mph /  5.5km/h 10mph /  16.1km/h 66.2% 0.00in /  0mm 283 W/m2
13:14 56.9 °F /  13.8 °C 45.7 °F /  7.6 °C 29.58in /  1001.6hPa WNW 5.4mph /  8.7km/h 11mph /  17.7km/h 66% 0.00in /  0mm 367 W/m2
13:19 56.7 °F /  13.7 °C 45.5 °F /  7.5 °C 29.58in /  1001.6hPa NW 6.3mph /  10.1km/h 11mph /  17.7km/h 66% 0.00in /  0mm 378 W/m2
13:24 57.1 °F /  13.9 °C 45.9 °F /  7.7 °C 29.58in /  1001.6hPa NW 3.8mph /  6.1km/h 10mph /  16.1km/h 66% 0.00in /  0mm 763 W/m2
13:29 57.7 °F /  14.3 °C 46.1 °F /  7.8 °C 29.58in /  1001.6hPa NW 6.6mph /  10.6km/h 11mph /  17.7km/h 65.4% 0.00in /  0mm 708 W/m2
13:34 57.7 °F /  14.3 °C 45.9 °F /  7.7 °C 29.58in /  1001.6hPa WNW 6.2mph /  10km/h 12mph /  19.3km/h 64.8% 0.00in /  0mm 724 W/m2
13:39 58.1 °F /  14.5 °C 46.4 °F /  8 °C 29.58in /  1001.6hPa WNW 5.5mph /  8.9km/h 9mph /  14.5km/h 65% 0.00in /  0mm 747 W/m2
13:44 58.5 °F /  14.7 °C 46.5 °F /  8.1 °C 29.57in /  1001.2hPa West 4mph /  6.4km/h 9mph /  14.5km/h 64.2% 0.00in /  0mm 752 W/m2
13:49 58.7 °F /  14.8 °C 46.8 °F /  8.2 °C 29.57in /  1001.2hPa WNW 2.5mph /  4km/h 7mph /  11.3km/h 64.4% 0.00in /  0mm 735 W/m2
13:54 59.2 °F /  15.1 °C 46.5 °F /  8.1 °C 29.57in /  1001.2hPa WNW 4.2mph /  6.8km/h 10mph /  16.1km/h 62.8% 0.00in /  0mm 786 W/m2
13:59 59.4 °F /  15.2 °C 46.3 °F /  7.9 °C 29.57in /  1001.2hPa WNW 5.9mph /  9.5km/h 10mph /  16.1km/h 61.6% 0.00in /  0mm 770 W/m2
14:04 59.6 °F /  15.3 °C 46.5 °F /  8.1 °C 29.57in /  1001.2hPa West 4.4mph /  7.1km/h 10mph /  16.1km/h 61.8% 0.00in /  0mm 728 W/m2
14:09 60 °F /  15.6 °C 46.7 °F /  8.2 °C 29.57in /  1001.2hPa NW 3.2mph /  5.1km/h 10mph /  16.1km/h 61.5% 0.00in /  0mm 696 W/m2
14:14 60.4 °F /  15.8 °C 47.1 °F /  8.4 °C 29.57in /  1001.2hPa WNW 6.1mph /  9.8km/h 9mph /  14.5km/h 61.6% 0.00in /  0mm 703 W/m2
14:19 60 °F /  15.6 °C 46.7 °F /  8.2 °C 29.57in /  1001.2hPa WNW 4mph /  6.4km/h 9mph /  14.5km/h 61.6% 0.00in /  0mm 714 W/m2
14:24 60.1 °F /  15.6 °C 46.9 °F /  8.3 °C 29.57in /  1001.2hPa WNW 3.4mph /  5.5km/h 9mph /  14.5km/h 62% 0.00in /  0mm 668 W/m2
14:29 59.6 °F /  15.3 °C 46.4 °F /  8 °C 29.57in /  1001.2hPa NNW 5.4mph /  8.7km/h 10mph /  16.1km/h 61.6% 0.00in /  0mm 148 W/m2
14:34 59 °F /  15 °C 46 °F /  7.8 °C 29.57in /  1001.2hPa NW 4.9mph /  7.9km/h 8mph /  12.9km/h 62% 0.00in /  0mm 163 W/m2
14:39 58.5 °F /  14.7 °C 45.2 °F /  7.3 °C 29.57in /  1001.2hPa NW 4.1mph /  6.6km/h 8mph /  12.9km/h 61.2% 0.00in /  0mm 169 W/m2
14:44 58.2 °F /  14.6 °C 45.5 °F /  7.5 °C 29.57in /  1001.2hPa North 7.4mph /  11.9km/h 12mph /  19.3km/h 62.6% 0.00in /  0mm 172 W/m2
14:49 57.5 °F /  14.2 °C 46 °F /  7.8 °C 29.57in /  1001.2hPa North 6.4mph /  10.3km/h 13mph /  20.9km/h 65.4% 0.00in /  0mm 165 W/m2
14:54 56.8 °F /  13.8 °C 46 °F /  7.8 °C 29.57in /  1001.2hPa NNE 6.6mph /  10.6km/h 11mph /  17.7km/h 66.8% 0.00in /  0mm 127 W/m2
14:59 56.9 °F /  13.8 °C 46.2 °F /  7.9 °C 29.57in /  1001.2hPa North 4.8mph /  7.7km/h 11mph /  17.7km/h 67.2% 0.00in /  0mm 91 W/m2
15:04 56.6 °F /  13.7 °C 45.9 °F /  7.7 °C 29.57in /  1001.2hPa NNE 4mph /  6.4km/h 9mph /  14.5km/h 67.4% 0.00in /  0mm 60 W/m2
15:09 56.5 °F /  13.6 °C 46 °F /  7.8 °C 29.57in /  1001.2hPa NNE 3.2mph /  5.1km/h 7mph /  11.3km/h 68% 0.00in /  0mm 98 W/m2
15:14 56.2 °F /  13.4 °C 45.9 °F /  7.7 °C 29.57in /  1001.2hPa North 3.3mph /  5.3km/h 6mph /  9.7km/h 68.4% 0.00in /  0mm 114 W/m2
15:19 55.9 °F /  13.3 °C 45.9 °F /  7.7 °C 29.57in /  1001.2hPa NW 2.9mph /  4.7km/h 5mph /  8km/h 69% 0.00in /  0mm 113 W/m2
15:24 55.9 °F /  13.3 °C 45.9 °F /  7.7 °C 29.57in /  1001.2hPa WNW 3.7mph /  6km/h 6mph /  9.7km/h 69% 0.00in /  0mm 121 W/m2
15:29 56.1 °F /  13.4 °C 46 °F /  7.8 °C 29.57in /  1001.2hPa West 5.2mph /  8.4km/h 9mph /  14.5km/h 69.2% 0.00in /  0mm 158 W/m2
15:34 55.6 °F /  13.1 °C 46.7 °F /  8.2 °C 29.57in /  1001.2hPa West 6.3mph /  10.1km/h 11mph /  17.7km/h 71.5% 0.00in /  0mm 167 W/m2
15:39 55 °F /  12.8 °C 46.6 °F /  8.1 °C 29.57in /  1001.2hPa West 4.9mph /  7.9km/h 11mph /  17.7km/h 73.2% 0.00in /  0mm 162 W/m2
15:44 54.6 °F /  12.6 °C 46.7 °F /  8.2 °C 29.57in /  1001.2hPa West 5.8mph /  9.3km/h 10mph /  16.1km/h 74.6% 0.00in /  0mm 155 W/m2
15:49 54.3 °F /  12.4 °C 46.7 °F /  8.2 °C 29.57in /  1001.2hPa WNW 3.4mph /  5.5km/h 9mph /  14.5km/h 75.6% 0.00in /  0mm 155 W/m2
15:54 54.1 °F /  12.3 °C 46.8 °F /  8.2 °C 29.57in /  1001.2hPa West 6mph /  9.7km/h 9mph /  14.5km/h 76% 0.00in /  0mm 162 W/m2
15:59 54 °F /  12.2 °C 46.8 °F /  8.2 °C 29.57in /  1001.2hPa West 3.7mph /  6km/h 8mph /  12.9km/h 76.8% 0.00in /  0mm 243 W/m2
16:04 54.2 °F /  12.3 °C 47.2 °F /  8.4 °C 29.57in /  1001.2hPa WNW 1.7mph /  2.7km/h 6mph /  9.7km/h 77% 0.00in /  0mm 394 W/m2
16:09 54.7 °F /  12.6 °C 47.7 °F /  8.7 °C 29.57in /  1001.2hPa West 3mph /  4.8km/h 6mph /  9.7km/h 77% 0.00in /  0mm 179 W/m2
16:14 54.8 °F /  12.7 °C 47.7 °F /  8.7 °C 29.57in /  1001.2hPa West 3.2mph /  5.1km/h 6mph /  9.7km/h 77% 0.00in /  0mm 144 W/m2
16:19 54.7 °F /  12.6 °C 47.5 °F /  8.6 °C 29.57in /  1001.2hPa West 4.4mph /  7.1km/h 9mph /  14.5km/h 76.6% 0.00in /  0mm 146 W/m2
16:24 54.7 °F /  12.6 °C 47.3 °F /  8.5 °C 29.57in /  1001.2hPa WSW 6.2mph /  10km/h 9mph /  14.5km/h 76% 0.00in /  0mm 149 W/m2
16:29 54.5 °F /  12.5 °C 47.1 °F /  8.4 °C 29.57in /  1001.2hPa West 3.9mph /  6.3km/h 7mph /  11.3km/h 76% 0.00in /  0mm 142 W/m2
16:34 54.4 °F /  12.4 °C 47 °F /  8.3 °C 29.57in /  1001.2hPa WSW 4.5mph /  7.2km/h 8mph /  12.9km/h 76% 0.00in /  0mm 176 W/m2
16:39 54.5 °F /  12.5 °C 47.1 °F /  8.4 °C 29.57in /  1001.2hPa WSW 4.4mph /  7.1km/h 6mph /  9.7km/h 76.2% 0.00in /  0mm 163 W/m2
16:44 54.6 °F /  12.6 °C 47.6 °F /  8.7 °C 29.57in /  1001.2hPa WSW 3.1mph /  5km/h 6mph /  9.7km/h 77% 0.00in /  0mm 125 W/m2
16:49 54.7 °F /  12.6 °C 47.7 °F /  8.7 °C 29.57in /  1001.2hPa West 4.4mph /  7.1km/h 7mph /  11.3km/h 77% 0.00in /  0mm 113 W/m2
16:54 54.7 °F /  12.6 °C 47.7 °F /  8.7 °C 29.57in /  1001.2hPa West 3.4mph /  5.5km/h 7mph /  11.3km/h 77% 0.00in /  0mm 102 W/m2
16:59 54.5 °F /  12.5 °C 47.7 °F /  8.7 °C 29.57in /  1001.2hPa West 2.5mph /  4km/h 6mph /  9.7km/h 77.6% 0.00in /  0mm 84 W/m2
17:04 54.5 °F /  12.5 °C 47.8 °F /  8.8 °C 29.57in /  1001.2hPa West 3.3mph /  5.3km/h 7mph /  11.3km/h 78% 0.00in /  0mm 72 W/m2
17:09 54.3 °F /  12.4 °C 47.7 °F /  8.7 °C 29.57in /  1001.2hPa West 3.2mph /  5.1km/h 7mph /  11.3km/h 78% 0.00in /  0mm 107 W/m2
17:14 54.3 °F /  12.4 °C 47.7 °F /  8.7 °C 29.57in /  1001.2hPa West 5.2mph /  8.4km/h 10mph /  16.1km/h 78% 0.00in /  0mm 223 W/m2
17:19 54.9 °F /  12.7 °C 47.9 °F /  8.8 °C 29.57in /  1001.2hPa West 3.5mph /  5.6km/h 7mph /  11.3km/h 77.2% 0.00in /  0mm 218 W/m2
17:24 55.5 °F /  13.1 °C 48.4 °F /  9.1 °C 29.57in /  1001.2hPa West 4.5mph /  7.2km/h 7mph /  11.3km/h 76.8% 0.00in /  0mm 218 W/m2
17:29 55.6 °F /  13.1 °C 47.9 °F /  8.8 °C 29.57in /  1001.2hPa West 5.1mph /  8.2km/h 9mph /  14.5km/h 75.4% 0.00in /  0mm 183 W/m2
17:34 55.2 °F /  12.9 °C 47.5 °F /  8.6 °C 29.57in /  1001.2hPa West 4.4mph /  7.1km/h 10mph /  16.1km/h 75% 0.00in /  0mm 77 W/m2
17:39 55 °F /  12.8 °C 47.3 °F /  8.5 °C 29.57in /  1001.2hPa West 3.9mph /  6.3km/h 8mph /  12.9km/h 75% 0.00in /  0mm 62 W/m2
17:44 54.9 °F /  12.7 °C 47.1 °F /  8.4 °C 29.57in /  1001.2hPa West 4.3mph /  6.9km/h 9mph /  14.5km/h 75% 0.00in /  0mm 33 W/m2
17:49 54.6 °F /  12.6 °C 47.1 °F /  8.4 °C 29.57in /  1001.2hPa WNW 7.3mph /  11.7km/h 13mph /  20.9km/h 75.8% 0.00in /  0mm 26 W/m2
17:54 54.2 °F /  12.3 °C 47 °F /  8.3 °C 29.57in /  1001.2hPa WNW 5.6mph /  9km/h 12mph /  19.3km/h 76.6% 0.00in /  0mm 25 W/m2
17:59 54 °F /  12.2 °C 46.9 °F /  8.3 °C 29.57in /  1001.2hPa NW 5.5mph /  8.9km/h 11mph /  17.7km/h 77% 0.00in /  0mm 25 W/m2
18:04 53.6 °F /  12 °C 46.6 °F /  8.1 °C 29.57in /  1001.2hPa NW 6.2mph /  10km/h 12mph /  19.3km/h 77% 0.00in /  0mm 23 W/m2
18:09 53.3 °F /  11.8 °C 46.5 °F /  8.1 °C 29.57in /  1001.2hPa NNW 5.8mph /  9.3km/h 11mph /  17.7km/h 77.6% 0.00in /  0mm 19 W/m2
18:14 53 °F /  11.7 °C 46.3 °F /  7.9 °C 29.57in /  1001.2hPa WNW 4.2mph /  6.8km/h 11mph /  17.7km/h 78% 0.00in /  0mm 18 W/m2
18:19 52.6 °F /  11.4 °C 46 °F /  7.8 °C 29.57in /  1001.2hPa NW 3.7mph /  6km/h 11mph /  17.7km/h 78.2% 0.00in /  0mm 16 W/m2
18:24 52.4 °F /  11.3 °C 46.1 °F /  7.8 °C 29.57in /  1001.2hPa WNW 2.4mph /  3.9km/h 7mph /  11.3km/h 79% 0.00in /  0mm 14 W/m2
18:29 52.3 °F /  11.3 °C 46 °F /  7.8 °C 29.58in /  1001.6hPa WNW 1.8mph /  2.9km/h 5mph /  8km/h 79% 0.00in /  0mm 12 W/m2
18:34 52.2 °F /  11.2 °C 45.9 °F /  7.7 °C 29.58in /  1001.6hPa WNW 2mph /  3.2km/h 5mph /  8km/h 79% 0.00in /  0mm 9 W/m2
18:39 52 °F /  11.1 °C 45.7 °F /  7.6 °C 29.58in /  1001.6hPa West 2.3mph /  3.7km/h 5mph /  8km/h 79% 0.00in /  0mm 5 W/m2
18:44 52 °F /  11.1 °C 46 °F /  7.8 °C 29.58in /  1001.6hPa West 2.5mph /  4km/h 5mph /  8km/h 80% 0.00in /  0mm 0 W/m2
18:49 51.7 °F /  10.9 °C 46 °F /  7.8 °C 29.58in /  1001.6hPa West 2.5mph /  4km/h 5mph /  8km/h 80.8% 0.00in /  0mm 0 W/m2
18:54 51.5 °F /  10.8 °C 46 °F /  7.8 °C 29.58in /  1001.6hPa West 2.1mph /  3.4km/h 4mph /  6.4km/h 81.2% 0.00in /  0mm 0 W/m2
18:59 51.4 °F /  10.8 °C 46.2 °F /  7.9 °C 29.58in /  1001.6hPa West 2.4mph /  3.9km/h 4mph /  6.4km/h 82% 0.00in /  0mm 0 W/m2
19:04 51.3 °F /  10.7 °C 46.1 °F /  7.8 °C 29.58in /  1001.6hPa WSW 3.3mph /  5.3km/h 5mph /  8km/h 82.6% 0.00in /  0mm 0 W/m2
19:09 51.1 °F /  10.6 °C 46 °F /  7.8 °C 29.58in /  1001.6hPa WSW 1.6mph /  2.6km/h 4mph /  6.4km/h 83% 0.00in /  0mm 0 W/m2
19:14 51.1 °F /  10.6 °C 46.2 °F /  7.9 °C 29.58in /  1001.6hPa WSW 2mph /  3.2km/h 4mph /  6.4km/h 83.6% 0.00in /  0mm 0 W/m2
19:19 51.1 °F /  10.6 °C 46.4 °F /  8 °C 29.58in /  1001.6hPa WSW 1.5mph /  2.4km/h 3mph /  4.8km/h 84% 0.00in /  0mm 0 W/m2
19:24 51 °F /  10.6 °C 46.3 °F /  7.9 °C 29.58in /  1001.6hPa WSW 1.8mph /  2.9km/h 3mph /  4.8km/h 84% 0.00in /  0mm 0 W/m2
19:29 50.8 °F /  10.4 °C 46.4 °F /  8 °C 29.58in /  1001.6hPa WSW 2.1mph /  3.4km/h 3mph /  4.8km/h 84.6% 0.00in /  0mm 0 W/m2
19:34 50.9 °F /  10.5 °C 46.6 °F /  8.1 °C 29.58in /  1001.6hPa WSW 1.6mph /  2.6km/h 4mph /  6.4km/h 85% 0.00in /  0mm 0 W/m2
19:39 50.7 °F /  10.4 °C 46.4 °F /  8 °C 29.58in /  1001.6hPa WSW 1.3mph /  2.1km/h 4mph /  6.4km/h 85% 0.00in /  0mm 0 W/m2
19:43 50.8 °F /  10.4 °C 46.5 °F /  8.1 °C 29.58in /  1001.6hPa WSW 0.7mph /  1.1km/h 2mph /  3.2km/h 85% 0.00in /  0mm 0 W/m2
19:49 50.9 °F /  10.5 °C 46.6 °F /  8.1 °C 29.58in /  1001.6hPa WSW 0.7mph /  1.1km/h 2mph /  3.2km/h 85% 0.00in /  0mm 0 W/m2
19:54 50.9 °F /  10.5 °C 46.6 °F /  8.1 °C 29.58in /  1001.6hPa WSW 1.9mph /  3.1km/h 3mph /  4.8km/h 85% 0.00in /  0mm 0 W/m2
19:59 50.9 °F /  10.5 °C 46.6 °F /  8.1 °C 29.58in /  1001.6hPa WSW 0.8mph /  1.3km/h 3mph /  4.8km/h 85% 0.00in /  0mm 0 W/m2
20:04 50.9 °F /  10.5 °C 46.6 °F /  8.1 °C 29.58in /  1001.6hPa WSW 1.1mph /  1.8km/h 2mph /  3.2km/h 85% 0.00in /  0mm 0 W/m2
20:09 50.9 °F /  10.5 °C 46.6 °F /  8.1 °C 29.58in /  1001.6hPa WSW 0.2mph /  0.3km/h 2mph /  3.2km/h 85% 0.00in /  0mm 0 W/m2
20:14 50.9 °F /  10.5 °C 46.6 °F /  8.1 °C 29.58in /  1001.6hPa WSW 0.8mph /  1.3km/h 2mph /  3.2km/h 85% 0.00in /  0mm 0 W/m2
20:19 50.7 °F /  10.4 °C 46.4 °F /  8 °C 29.58in /  1001.6hPa WSW 0.2mph /  0.3km/h 2mph /  3.2km/h 85% 0.00in /  0mm 0 W/m2
20:24 50.7 °F /  10.4 °C 46.4 °F /  8 °C 29.58in /  1001.6hPa Calm   2mph /  3.2km/h 85% 0.00in /  0mm 0 W/m2
20:29 50.7 °F /  10.4 °C 46.4 °F /  8 °C 29.58in /  1001.6hPa WSW 0.4mph /  0.6km/h 2mph /  3.2km/h 85% 0.00in /  0mm 0 W/m2
20:34 50.7 °F /  10.4 °C 46.4 °F /  8 °C 29.58in /  1001.6hPa WSW 0.5mph /  0.8km/h 3mph /  4.8km/h 85% 0.00in /  0mm 0 W/m2
20:39 50.6 °F /  10.3 °C 46.3 °F /  7.9 °C 29.58in /  1001.6hPa WSW 0.2mph /  0.3km/h 2mph /  3.2km/h 85% 0.00in /  0mm 0 W/m2
20:44 50.7 °F /  10.4 °C 46.3 °F /  7.9 °C 29.58in /  1001.6hPa WSW 0.2mph /  0.3km/h 2mph /  3.2km/h 85% 0.00in /  0mm 0 W/m2
20:49 50.7 °F /  10.4 °C 46.4 °F /  8 °C 29.58in /  1001.6hPa WSW 0.7mph /  1.1km/h 3mph /  4.8km/h 85% 0.00in /  0mm 0 W/m2
20:54 50.5 °F /  10.3 °C 46.2 °F /  7.9 °C 29.58in /  1001.6hPa WSW 0.7mph /  1.1km/h 2mph /  3.2km/h 85% 0.00in /  0mm 0 W/m2
20:59 50.4 °F /  10.2 °C 46 °F /  7.8 °C 29.59in /  1001.9hPa WSW 0.5mph /  0.8km/h 2mph /  3.2km/h 85% 0.00in /  0mm 0 W/m2
21:04 50.4 °F /  10.2 °C 46 °F /  7.8 °C 29.58in /  1001.6hPa Calm   2mph /  3.2km/h 85% 0.00in /  0mm 0 W/m2
21:09 50.4 °F /  10.2 °C 46 °F /  7.8 °C 29.59in /  1001.9hPa Calm   1mph /  1.6km/h 85% 0.00in /  0mm 0 W/m2
21:14 50.4 °F /  10.2 °C 46 °F /  7.8 °C 29.59in /  1001.9hPa Calm   1mph /  1.6km/h 85% 0.00in /  0mm 0 W/m2
21:19 50.4 °F /  10.2 °C 46 °F /  7.8 °C 29.59in /  1001.9hPa Calm   1mph /  1.6km/h 85% 0.00in /  0mm 0 W/m2
21:24 50.4 °F /  10.2 °C 46 °F /  7.8 °C 29.59in /  1001.9hPa WSW 0.2mph /  0.3km/h 1mph /  1.6km/h 85% 0.00in /  0mm 0 W/m2
21:29 50.4 °F /  10.2 °C 46 °F /  7.8 °C 29.59in /  1001.9hPa Calm   1mph /  1.6km/h 85% 0.00in /  0mm 0 W/m2
21:34 50.2 °F /  10.1 °C 45.9 °F /  7.7 °C 29.59in /  1001.9hPa WSW 0.2mph /  0.3km/h 1mph /  1.6km/h 85% 0.00in /  0mm 0 W/m2
21:39 50.2 °F /  10.1 °C 45.9 °F /  7.7 °C 29.59in /  1001.9hPa WSW 0.2mph /  0.3km/h 2mph /  3.2km/h 85% 0.00in /  0mm 0 W/m2
21:44 50.2 °F /  10.1 °C 45.9 °F /  7.7 °C 29.59in /  1001.9hPa Calm   2mph /  3.2km/h 85% 0.00in /  0mm 0 W/m2
21:49 50.2 °F /  10.1 °C 45.9 °F /  7.7 °C 29.59in /  1001.9hPa Calm   1mph /  1.6km/h 85% 0.00in /  0mm 0 W/m2
21:54 50.4 °F /  10.2 °C 46 °F /  7.8 °C 29.59in /  1001.9hPa Calm   1mph /  1.6km/h 85% 0.00in /  0mm 0 W/m2
21:58 50.4 °F /  10.2 °C 46 °F /  7.8 °C 29.59in /  1001.9hPa Calm   1mph /  1.6km/h 85% 0.00in /  0mm 0 W/m2
22:04 50.4 °F /  10.2 °C 46 °F /  7.8 °C 29.59in /  1001.9hPa Calm     85% 0.00in /  0mm 0 W/m2
22:09 50.4 °F /  10.2 °C 46 °F /  7.8 °C 29.59in /  1001.9hPa Calm     85% 0.00in /  0mm 0 W/m2
22:14 50.4 °F /  10.2 °C 46 °F /  7.8 °C 29.59in /  1001.9hPa Calm     85% 0.00in /  0mm 0 W/m2
22:19 50.4 °F /  10.2 °C 46 °F /  7.8 °C 29.59in /  1001.9hPa WSW 0.8mph /  1.3km/h 2mph /  3.2km/h 85% 0.00in /  0mm 0 W/m2
22:24 50.4 °F /  10.2 °C 46 °F /  7.8 °C 29.59in /  1001.9hPa WSW 0.2mph /  0.3km/h 1mph /  1.6km/h 85% 0.00in /  0mm 0 W/m2
22:29 50.4 °F /  10.2 °C 46 °F /  7.8 °C 29.59in /  1001.9hPa WSW 0.5mph /  0.8km/h 1mph /  1.6km/h 85% 0.00in /  0mm 0 W/m2
22:34 50.3 °F /  10.2 °C 45.9 °F /  7.7 °C 29.59in /  1001.9hPa WSW 1.1mph /  1.8km/h 2mph /  3.2km/h 84.8% 0.00in /  0mm 0 W/m2
22:39 49.9 °F /  9.9 °C 45.3 °F /  7.4 °C 29.59in /  1001.9hPa WSW 0.4mph /  0.6km/h 2mph /  3.2km/h 84.2% 0.00in /  0mm 0 W/m2
22:44 49.6 °F /  9.8 °C 45.3 °F /  7.4 °C 29.59in /  1001.9hPa Calm   2mph /  3.2km/h 85% 0.00in /  0mm 0 W/m2
22:49 49.4 °F /  9.7 °C 45 °F /  7.2 °C 29.59in /  1001.9hPa Calm   1mph /  1.6km/h 85% 0.00in /  0mm 0 W/m2
22:54 49 °F /  9.4 °C 44.7 °F /  7.1 °C 29.59in /  1001.9hPa WSW 0.5mph /  0.8km/h 3mph /  4.8km/h 85% 0.00in /  0mm 0 W/m2
22:59 48.7 °F /  9.3 °C 44.4 °F /  6.9 °C 29.59in /  1001.9hPa Calm   2mph /  3.2km/h 85% 0.00in /  0mm 0 W/m2
23:04 48.6 °F /  9.2 °C 44.3 °F /  6.8 °C 29.59in /  1001.9hPa Calm     85% 0.00in /  0mm 0 W/m2
23:08 48.6 °F /  9.2 °C 44.2 °F /  6.8 °C 29.59in /  1001.9hPa Calm   1mph /  1.6km/h 85% 0.00in /  0mm 0 W/m2
23:14 48.3 °F /  9.1 °C 44 °F /  6.7 °C 29.60in /  1002.3hPa Calm     85% 0.00in /  0mm 0 W/m2
23:19 47.8 °F /  8.8 °C 43.5 °F /  6.4 °C 29.59in /  1001.9hPa WSW 0.2mph /  0.3km/h 1mph /  1.6km/h 85% 0.00in /  0mm 0 W/m2
23:24 47.6 °F /  8.7 °C 43.7 °F /  6.5 °C 29.59in /  1001.9hPa Calm   1mph /  1.6km/h 86% 0.00in /  0mm 0 W/m2
23:29 47.3 °F /  8.5 °C 43.3 °F /  6.3 °C 29.59in /  1001.9hPa WSW 0.2mph /  0.3km/h 1mph /  1.6km/h 86% 0.00in /  0mm 0 W/m2
23:34 47.1 °F /  8.4 °C 43.2 °F /  6.2 °C 29.59in /  1001.9hPa WSW 0.9mph /  1.4km/h 2mph /  3.2km/h 86% 0.00in /  0mm 0 W/m2
23:39 46.9 °F /  8.3 °C 42.9 °F /  6.1 °C 29.60in /  1002.3hPa WSW 0.2mph /  0.3km/h 2mph /  3.2km/h 86% 0.00in /  0mm 0 W/m2
23:44 46.5 °F /  8.1 °C 42.5 °F /  5.8 °C 29.59in /  1001.9hPa WSW 1.1mph /  1.8km/h 2mph /  3.2km/h 86% 0.00in /  0mm 0 W/m2
23:49 46.3 °F /  7.9 °C 42.5 °F /  5.8 °C 29.59in /  1001.9hPa WSW 0.4mph /  0.6km/h 2mph /  3.2km/h 86.4% 0.00in /  0mm 0 W/m2
23:54 46.2 °F /  7.9 °C 42.6 °F /  5.9 °C 29.59in /  1001.9hPa WSW 0.4mph /  0.6km/h 2mph /  3.2km/h 87% 0.00in /  0mm 0 W/m2
23:59 46.1 °F /  7.8 °C 42.5 °F /  5.8 °C 29.59in /  1001.9hPa WSW 0.2mph /  0.3km/h 1mph /  1.6km/h 87% 0.00in /  0mm 0 W/m2
Bath Spa Weather
Compliments of Weather Underground - 2 mb